createdAt,value
2018-11-25T00:00:17.452Z,2.20
2018-11-25T00:02:44.982Z,2.20
2018-11-25T00:05:12.555Z,2.30
2018-11-25T00:07:40.120Z,2.40
2018-11-25T00:10:07.668Z,2.30
2018-11-25T00:12:35.255Z,2.30
2018-11-25T00:15:02.838Z,2.30
2018-11-25T00:17:30.379Z,2.30
2018-11-25T00:19:57.938Z,2.20
2018-11-25T00:22:25.509Z,2.20
2018-11-25T00:27:27.686Z,1.90
2018-11-25T00:29:55.224Z,2.00
2018-11-25T00:32:24.739Z,1.90
2018-11-25T00:34:52.288Z,1.90
2018-11-25T00:37:19.851Z,2.00
2018-11-25T00:39:47.391Z,2.10
2018-11-25T00:42:15.951Z,2.10
2018-11-25T00:44:43.475Z,2.10
2018-11-25T00:47:11.817Z,2.20
2018-11-25T00:49:39.360Z,2.20
2018-11-25T00:52:06.944Z,2.20
2018-11-25T00:54:34.482Z,2.10
2018-11-25T00:57:02.059Z,2.00
2018-11-25T00:59:29.612Z,2.00
2018-11-25T01:01:57.183Z,2.00
2018-11-25T01:04:24.717Z,2.00
2018-11-25T01:06:53.376Z,2.00
2018-11-25T01:09:20.925Z,1.90
2018-11-25T01:11:49.268Z,1.90
2018-11-25T01:14:18.790Z,1.90
2018-11-25T01:16:47.299Z,1.90
2018-11-25T01:19:14.871Z,1.90
2018-11-25T01:21:43.372Z,1.90
2018-11-25T01:24:11.533Z,1.90
2018-11-25T01:26:39.085Z,1.90
2018-11-25T01:29:06.661Z,1.90
2018-11-25T01:31:35.185Z,1.90
2018-11-25T01:34:02.764Z,1.70
2018-11-25T01:36:30.326Z,1.70
2018-11-25T01:38:57.896Z,1.80
2018-11-25T01:41:25.469Z,1.80
2018-11-25T01:43:53.047Z,1.80
2018-11-25T01:46:20.628Z,1.80
2018-11-25T01:48:48.180Z,1.80
2018-11-25T01:51:15.759Z,1.80
2018-11-25T01:53:43.300Z,1.70
2018-11-25T01:56:11.211Z,1.70
2018-11-25T01:58:38.779Z,1.70
2018-11-25T02:01:06.348Z,1.80
2018-11-25T02:03:33.886Z,1.80
2018-11-25T02:06:02.443Z,1.80
2018-11-25T02:08:30.931Z,1.80
2018-11-25T02:10:58.494Z,1.80
2018-11-25T02:13:26.035Z,1.80
2018-11-25T02:15:53.617Z,1.70
2018-11-25T02:18:21.187Z,1.80
2018-11-25T02:20:49.695Z,1.70
2018-11-25T02:23:17.267Z,1.80
2018-11-25T02:25:44.830Z,1.70
2018-11-25T02:28:12.362Z,1.70
2018-11-25T02:30:39.904Z,1.80
2018-11-25T02:33:07.492Z,1.70
2018-11-25T02:35:35.066Z,1.70
2018-11-25T02:38:02.611Z,1.70
2018-11-25T02:40:30.200Z,1.70
2018-11-25T02:42:57.746Z,1.60
2018-11-25T02:45:25.460Z,1.60
2018-11-25T02:47:52.999Z,1.60
2018-11-25T02:50:20.583Z,1.60
2018-11-25T02:52:49.099Z,1.60
2018-11-25T02:55:16.684Z,1.60
2018-11-25T02:57:44.225Z,1.60
2018-11-25T03:00:11.806Z,1.60
2018-11-25T03:02:39.354Z,1.50
2018-11-25T03:05:06.926Z,1.50
2018-11-25T03:07:34.460Z,1.50
2018-11-25T03:10:02.029Z,1.50
2018-11-25T03:12:29.569Z,1.50
2018-11-25T03:14:57.138Z,1.50
2018-11-25T03:17:24.720Z,1.60
2018-11-25T03:19:52.307Z,1.50
2018-11-25T03:22:19.864Z,1.50
2018-11-25T03:24:47.444Z,1.40
2018-11-25T03:27:15.016Z,1.40
2018-11-25T03:29:42.590Z,1.40
2018-11-25T03:32:11.104Z,1.30
2018-11-25T03:34:38.680Z,1.30
2018-11-25T03:37:06.263Z,1.40
2018-11-25T03:39:33.795Z,1.40
2018-11-25T03:42:02.151Z,1.50
2018-11-25T03:44:30.660Z,1.40
2018-11-25T03:46:58.239Z,1.50
2018-11-25T03:49:25.808Z,1.40
2018-11-25T03:51:53.342Z,1.40
2018-11-25T03:54:20.922Z,1.50
2018-11-25T03:56:48.537Z,1.50
2018-11-25T03:59:16.116Z,1.50
2018-11-25T04:01:44.606Z,1.40
2018-11-25T04:04:12.187Z,1.40
2018-11-25T04:06:39.763Z,1.40
2018-11-25T04:09:07.348Z,1.40
2018-11-25T04:11:34.888Z,1.50
2018-11-25T04:14:02.460Z,1.50
2018-11-25T04:16:30.800Z,1.50
2018-11-25T04:18:58.375Z,1.50
2018-11-25T04:21:25.911Z,1.50
2018-11-25T04:23:53.484Z,1.40
2018-11-25T04:26:21.015Z,1.50
2018-11-25T04:28:50.540Z,1.50
2018-11-25T04:31:18.086Z,1.50
2018-11-25T04:33:45.655Z,1.50
2018-11-25T04:36:14.158Z,1.40
2018-11-25T04:38:41.736Z,1.40
2018-11-25T04:41:09.279Z,1.40
2018-11-25T04:43:36.853Z,1.40
2018-11-25T04:46:05.169Z,1.30
2018-11-25T04:48:34.693Z,1.30
2018-11-25T04:51:02.233Z,1.40
2018-11-25T04:53:29.825Z,1.30
2018-11-25T04:55:58.341Z,1.30
2018-11-25T04:58:25.928Z,1.30
2018-11-25T05:00:53.465Z,1.30
2018-11-25T05:03:21.052Z,1.40
2018-11-25T05:05:48.596Z,1.40
2018-11-25T05:08:16.166Z,1.40
2018-11-25T05:10:43.716Z,1.30
2018-11-25T05:13:11.300Z,1.30
2018-11-25T05:15:38.881Z,1.30
2018-11-25T05:18:06.464Z,1.30
2018-11-25T05:20:34.013Z,1.20
2018-11-25T05:23:01.596Z,1.20
2018-11-25T05:25:29.195Z,1.20
2018-11-25T05:27:56.759Z,1.20
2018-11-25T05:30:24.300Z,1.20
2018-11-25T05:32:51.895Z,1.20
2018-11-25T05:35:20.509Z,1.30
2018-11-25T05:37:49.057Z,1.30
2018-11-25T05:40:16.631Z,1.30
2018-11-25T05:42:44.216Z,1.20
2018-11-25T05:45:11.768Z,1.20
2018-11-25T05:47:39.351Z,1.20
2018-11-25T05:50:06.898Z,1.20
2018-11-25T05:52:36.412Z,1.20
2018-11-25T05:55:03.967Z,1.30
2018-11-25T05:57:33.481Z,1.20
2018-11-25T06:00:01.036Z,1.30
2018-11-25T06:02:28.611Z,1.30
2018-11-25T06:04:56.914Z,1.30
2018-11-25T06:07:24.487Z,1.20
2018-11-25T06:09:52.025Z,1.30
2018-11-25T06:12:19.599Z,1.20
2018-11-25T06:14:47.142Z,1.20
2018-11-25T06:17:16.702Z,1.20
2018-11-25T06:19:45.016Z,1.20
2018-11-25T06:22:12.592Z,1.10
2018-11-25T06:24:40.146Z,1.20
2018-11-25T06:27:08.690Z,1.10
2018-11-25T06:29:36.991Z,1.10
2018-11-25T06:32:04.582Z,1.10
2018-11-25T06:34:32.134Z,1.10
2018-11-25T06:37:01.640Z,1.10
2018-11-25T06:39:30.162Z,1.10
2018-11-25T06:41:57.737Z,1.10
2018-11-25T06:44:25.287Z,1.10
2018-11-25T06:46:52.876Z,1.00
2018-11-25T06:49:20.420Z,1.10
2018-11-25T06:51:47.992Z,1.10
2018-11-25T06:54:15.552Z,1.10
2018-11-25T06:56:43.119Z,1.00
2018-11-25T06:59:10.664Z,1.10
2018-11-25T07:01:38.254Z,1.10
2018-11-25T07:04:06.824Z,1.10
2018-11-25T07:06:34.362Z,1.20
2018-11-25T07:09:01.932Z,1.30
2018-11-25T07:11:31.449Z,1.30
2018-11-25T07:13:59.035Z,1.30
2018-11-25T07:16:27.920Z,1.40
2018-11-25T07:18:56.264Z,1.40
2018-11-25T07:21:23.827Z,1.40
2018-11-25T07:23:51.405Z,1.40
2018-11-25T07:26:18.934Z,1.30
2018-11-25T07:28:46.510Z,1.40
2018-11-25T07:31:14.095Z,1.50
2018-11-25T07:33:41.671Z,1.50
2018-11-25T07:36:09.204Z,1.60
2018-11-25T07:38:36.779Z,1.60
2018-11-25T07:41:04.353Z,1.60
2018-11-25T07:43:31.900Z,1.60
2018-11-25T07:45:59.467Z,1.60
2018-11-25T07:48:27.013Z,1.70
2018-11-25T07:50:56.568Z,1.70
2018-11-25T07:53:24.107Z,1.80
2018-11-25T07:55:52.695Z,1.90
2018-11-25T07:58:20.234Z,2.00
2018-11-25T08:00:47.813Z,2.10
2018-11-25T08:03:15.360Z,2.30
2018-11-25T08:05:42.935Z,2.50
2018-11-25T08:08:10.475Z,2.50
2018-11-25T08:10:38.051Z,2.50
2018-11-25T08:13:05.590Z,2.70
2018-11-25T08:15:34.042Z,2.90
2018-11-25T08:18:01.608Z,3.00
2018-11-25T08:20:31.183Z,3.20
2018-11-25T08:22:58.752Z,3.30
2018-11-25T08:25:26.284Z,3.50
2018-11-25T08:27:53.856Z,3.70
2018-11-25T08:30:21.431Z,3.80
2018-11-25T08:32:49.001Z,4.00
2018-11-25T08:35:16.556Z,4.20
2018-11-25T08:37:45.063Z,4.40
2018-11-25T08:40:12.650Z,4.60
2018-11-25T08:42:40.187Z,4.80
2018-11-25T08:45:07.763Z,5.10
2018-11-25T08:47:35.296Z,5.20
2018-11-25T08:50:02.847Z,5.40
2018-11-25T08:52:30.428Z,5.50
2018-11-25T08:54:57.967Z,5.60
2018-11-25T08:57:25.552Z,5.70
2018-11-25T08:59:53.892Z,6.00
2018-11-25T09:02:21.444Z,6.00
2018-11-25T09:04:49.007Z,6.20
2018-11-25T09:07:16.586Z,6.30
2018-11-25T09:09:44.184Z,6.50
2018-11-25T09:12:11.743Z,6.90
2018-11-25T09:14:39.308Z,7.20
2018-11-25T09:17:06.876Z,7.60
2018-11-25T09:19:34.450Z,7.90
2018-11-25T09:22:01.989Z,8.00
2018-11-25T09:24:29.557Z,8.30
2018-11-25T09:26:58.071Z,8.50
2018-11-25T09:29:25.648Z,8.70
2018-11-25T09:34:28.009Z,8.80
2018-11-25T09:36:56.526Z,8.90
2018-11-25T09:39:24.098Z,9.00
2018-11-25T09:41:51.639Z,9.00
2018-11-25T09:44:21.207Z,9.00
2018-11-25T09:46:48.744Z,9.10
2018-11-25T09:49:16.312Z,9.20
2018-11-25T09:51:43.859Z,9.30
2018-11-25T09:54:11.424Z,9.40
2018-11-25T09:56:38.975Z,9.40
2018-11-25T09:59:06.564Z,9.50
2018-11-25T10:01:34.132Z,9.60
2018-11-25T10:04:02.479Z,8.90
2018-11-25T10:06:30.021Z,8.80
2018-11-25T10:08:58.527Z,8.30
2018-11-25T10:11:26.114Z,8.00
2018-11-25T10:13:53.668Z,7.90
2018-11-25T10:16:21.243Z,7.60
2018-11-25T10:18:48.789Z,7.20
2018-11-25T10:21:16.362Z,7.30
2018-11-25T10:23:43.935Z,7.50
2018-11-25T10:26:11.519Z,7.80
2018-11-25T10:28:39.100Z,8.00
2018-11-25T10:31:06.652Z,7.90
2018-11-25T10:33:35.007Z,8.10
2018-11-25T10:36:04.588Z,8.00
2018-11-25T10:38:31.274Z,7.60
2018-11-25T10:40:58.868Z,7.30
2018-11-25T10:43:27.401Z,7.20
2018-11-25T10:45:54.987Z,7.00
2018-11-25T10:48:22.534Z,7.10
2018-11-25T10:50:51.223Z,7.30
2018-11-25T10:53:18.475Z,7.30
2018-11-25T10:55:46.051Z,7.20
2018-11-25T10:58:13.605Z,7.30
2018-11-25T11:00:41.188Z,7.40
2018-11-25T11:03:08.816Z,7.30
2018-11-25T11:05:37.174Z,7.50
2018-11-25T11:08:05.487Z,7.50
2018-11-25T11:10:33.075Z,7.50
2018-11-25T11:13:00.627Z,7.40
2018-11-25T11:15:28.195Z,7.40
2018-11-25T11:17:56.717Z,7.50
2018-11-25T11:20:24.297Z,7.70
2018-11-25T11:22:52.800Z,7.70
2018-11-25T11:25:20.385Z,7.80
2018-11-25T11:27:47.932Z,7.70
2018-11-25T11:30:15.518Z,7.80
2018-11-25T11:32:43.107Z,7.90
2018-11-25T11:35:11.131Z,8.00
2018-11-25T11:37:38.707Z,8.20
2018-11-25T11:40:07.055Z,8.10
2018-11-25T11:42:34.629Z,8.00
2018-11-25T11:45:02.170Z,8.10
2018-11-25T11:47:31.017Z,8.10
2018-11-25T11:49:58.624Z,8.20
2018-11-25T11:52:26.197Z,8.20
2018-11-25T11:54:54.542Z,8.30
2018-11-25T11:57:22.093Z,8.30
2018-11-25T11:59:49.684Z,8.50
2018-11-25T12:02:18.234Z,8.60
2018-11-25T12:04:45.820Z,8.40
2018-11-25T12:07:13.401Z,8.50
2018-11-25T12:09:40.975Z,8.40
2018-11-25T12:12:08.536Z,8.60
2018-11-25T12:14:36.251Z,8.60
2018-11-25T12:17:03.839Z,8.70
2018-11-25T12:19:31.403Z,8.70
2018-11-25T12:22:00.945Z,8.60
2018-11-25T12:24:28.482Z,8.50
2018-11-25T12:26:57.032Z,8.40
2018-11-25T12:29:24.586Z,8.40
2018-11-25T12:31:52.159Z,8.50
2018-11-25T12:34:19.712Z,8.70
2018-11-25T12:36:47.420Z,8.70
2018-11-25T12:39:15.766Z,9.00
2018-11-25T12:41:44.313Z,9.00
2018-11-25T12:44:11.872Z,9.10
2018-11-25T12:46:39.461Z,9.10
2018-11-25T12:49:06.996Z,9.20
2018-11-25T12:51:34.572Z,9.10
2018-11-25T12:54:03.083Z,9.10
2018-11-25T12:56:30.655Z,9.10
2018-11-25T12:58:58.238Z,9.10
2018-11-25T13:01:25.798Z,9.40
2018-11-25T13:03:53.379Z,9.20
2018-11-25T13:06:20.957Z,9.20
2018-11-25T13:08:48.531Z,9.50
2018-11-25T13:11:16.080Z,9.70
2018-11-25T13:13:43.650Z,9.60
2018-11-25T13:16:11.227Z,9.90
2018-11-25T13:18:38.817Z,10.00
2018-11-25T13:21:07.324Z,9.60
2018-11-25T13:23:34.897Z,9.30
2018-11-25T13:26:02.485Z,9.40
2018-11-25T13:28:30.138Z,9.50
2018-11-25T13:30:59.371Z,9.20
2018-11-25T13:33:26.943Z,9.20
2018-11-25T13:35:54.538Z,9.60
2018-11-25T13:38:22.110Z,9.60
2018-11-25T13:40:51.392Z,9.70
2018-11-25T13:43:19.914Z,9.70
2018-11-25T13:45:47.499Z,9.80
2018-11-25T13:48:15.071Z,9.80
2018-11-25T13:50:43.735Z,9.70
2018-11-25T13:53:12.263Z,9.30
2018-11-25T13:55:39.847Z,8.90
2018-11-25T13:58:07.451Z,8.80
2018-11-25T14:00:35.003Z,8.80
2018-11-25T14:03:02.595Z,8.70
2018-11-25T14:05:30.181Z,8.60
2018-11-25T14:07:57.756Z,8.70
2018-11-25T14:10:25.314Z,9.00
2018-11-25T14:12:52.887Z,9.10
2018-11-25T14:15:20.452Z,9.00
2018-11-25T14:17:48.032Z,8.80
2018-11-25T14:20:15.589Z,8.60
2018-11-25T14:22:43.163Z,8.50
2018-11-25T14:25:12.395Z,8.50
2018-11-25T14:27:40.005Z,8.50
2018-11-25T14:30:13.152Z,8.40
2018-11-25T14:32:36.301Z,8.50
2018-11-25T14:35:05.114Z,8.40
2018-11-25T14:37:36.771Z,8.50
2018-11-25T14:40:09.029Z,8.30
2018-11-25T14:42:40.179Z,8.30
2018-11-25T14:45:13.684Z,8.10
2018-11-25T14:47:43.260Z,8.10
2018-11-25T14:50:15.666Z,8.20
2018-11-25T14:52:43.549Z,8.20
2018-11-25T14:55:12.153Z,8.00
2018-11-25T14:57:39.739Z,7.70
2018-11-25T15:00:07.284Z,7.70
2018-11-25T15:02:34.872Z,7.50
2018-11-25T15:05:02.420Z,7.30
2018-11-25T15:07:30.109Z,7.30
2018-11-25T15:10:05.427Z,7.20
2018-11-25T15:12:33.192Z,7.20
2018-11-25T15:15:00.752Z,7.10
2018-11-25T15:17:28.327Z,7.00
2018-11-25T15:19:55.900Z,6.90
2018-11-25T15:22:24.429Z,6.80
2018-11-25T15:24:52.366Z,6.70
2018-11-25T15:27:19.948Z,6.60
2018-11-25T15:29:47.494Z,6.60
2018-11-25T15:32:15.064Z,6.50
2018-11-25T15:34:42.620Z,6.40
2018-11-25T15:37:10.229Z,6.30
2018-11-25T15:39:37.794Z,6.20
2018-11-25T15:42:05.376Z,6.10
2018-11-25T15:44:32.943Z,6.00
2018-11-25T15:47:07.782Z,5.90
2018-11-25T15:49:28.117Z,5.70
2018-11-25T15:51:55.709Z,5.60
2018-11-25T15:54:24.633Z,5.50
2018-11-25T15:56:52.213Z,5.40
2018-11-25T15:59:19.778Z,5.30
2018-11-25T16:01:47.369Z,5.10
2018-11-25T16:04:15.921Z,4.90
2018-11-25T16:06:43.517Z,4.90
2018-11-25T16:09:12.023Z,4.90
2018-11-25T16:11:40.364Z,4.90
2018-11-25T16:14:08.891Z,4.80
2018-11-25T16:16:36.468Z,4.80
2018-11-25T16:19:04.030Z,4.80
2018-11-25T16:21:31.604Z,4.70
2018-11-25T16:23:59.146Z,4.70
2018-11-25T16:26:26.814Z,4.60
2018-11-25T16:28:54.376Z,4.60
2018-11-25T16:31:21.948Z,4.70
2018-11-25T16:33:49.491Z,4.70
2018-11-25T16:36:17.069Z,4.70
2018-11-25T16:38:44.975Z,4.60
2018-11-25T16:41:12.605Z,4.60
2018-11-25T16:43:40.194Z,4.50
2018-11-25T16:46:07.767Z,4.30
2018-11-25T16:48:35.325Z,4.30
2018-11-25T16:51:04.858Z,4.40
2018-11-25T16:53:32.529Z,4.30
2018-11-25T16:56:00.145Z,4.30
2018-11-25T16:58:28.643Z,4.30
2018-11-25T17:00:56.235Z,4.40
2018-11-25T17:03:23.788Z,4.30
2018-11-25T17:05:51.367Z,4.40
2018-11-25T17:08:18.938Z,4.40
2018-11-25T17:10:46.508Z,4.40
2018-11-25T17:13:15.116Z,4.40
2018-11-25T17:15:43.709Z,4.40
2018-11-25T17:18:11.278Z,4.40
2018-11-25T17:20:38.931Z,4.40
2018-11-25T17:23:06.480Z,4.30
2018-11-25T17:25:34.061Z,4.40
2018-11-25T17:28:01.651Z,4.30
2018-11-25T17:30:29.200Z,4.30
2018-11-25T17:32:56.779Z,4.30
2018-11-25T17:35:24.340Z,4.30
2018-11-25T17:37:51.932Z,4.30
2018-11-25T17:40:19.483Z,4.20
2018-11-25T17:42:47.070Z,4.30
2018-11-25T17:45:15.575Z,4.30
2018-11-25T17:47:43.156Z,4.40
2018-11-25T17:50:10.705Z,4.40
2018-11-25T17:52:40.286Z,4.40
2018-11-25T17:55:08.633Z,4.40
2018-11-25T17:57:37.135Z,4.40
2018-11-25T18:00:05.656Z,4.50
2018-11-25T18:02:34.204Z,4.50
2018-11-25T18:05:01.785Z,4.60
2018-11-25T18:07:29.327Z,4.70
2018-11-25T18:09:56.904Z,4.80
2018-11-25T18:12:25.247Z,4.80
2018-11-25T18:14:52.823Z,4.80
2018-11-25T18:17:20.369Z,4.90
2018-11-25T18:19:47.946Z,4.90
2018-11-25T18:22:16.284Z,4.80
2018-11-25T18:24:43.875Z,4.80
2018-11-25T18:27:12.379Z,4.80
2018-11-25T18:29:40.905Z,4.80
2018-11-25T18:32:08.651Z,4.90
2018-11-25T18:34:36.247Z,4.90
2018-11-25T18:37:04.165Z,4.90
2018-11-25T18:39:31.738Z,4.90
2018-11-25T18:41:59.317Z,4.80
2018-11-25T18:44:26.922Z,4.80
2018-11-25T18:46:54.475Z,4.80
2018-11-25T18:49:22.032Z,4.80
2018-11-25T18:51:49.617Z,4.90
2018-11-25T18:54:17.159Z,4.80
2018-11-25T18:56:44.744Z,4.80
2018-11-25T18:59:12.288Z,4.90
2018-11-25T19:01:39.868Z,5.10
2018-11-25T19:04:07.411Z,5.10
2018-11-25T19:06:34.993Z,5.10
2018-11-25T19:09:02.544Z,5.10
2018-11-25T19:11:30.114Z,5.00
2018-11-25T19:13:57.660Z,4.90
2018-11-25T19:16:25.235Z,4.90
2018-11-25T19:18:53.539Z,4.90
2018-11-25T19:21:21.120Z,4.90
2018-11-25T19:23:48.664Z,4.80
2018-11-25T19:26:17.227Z,4.90
2018-11-25T19:28:44.775Z,4.80
2018-11-25T19:31:12.357Z,4.70
2018-11-25T19:33:39.899Z,4.70
2018-11-25T19:36:07.485Z,4.60
2018-11-25T19:38:35.026Z,4.50
2018-11-25T19:41:03.594Z,4.50
2018-11-25T19:43:31.152Z,4.50
2018-11-25T19:45:58.712Z,4.50
2018-11-25T19:48:26.299Z,4.60
2018-11-25T19:50:53.880Z,4.50
2018-11-25T19:53:21.468Z,4.60
2018-11-25T19:55:49.027Z,4.70
2018-11-25T19:58:16.604Z,4.80
2018-11-25T20:00:44.196Z,4.90
2018-11-25T20:03:11.772Z,5.00
2018-11-25T20:05:39.319Z,4.90
2018-11-25T20:08:06.896Z,4.90
2018-11-25T20:10:34.476Z,4.90
2018-11-25T20:13:04.799Z,4.80
2018-11-25T20:15:32.343Z,4.80
2018-11-25T20:17:59.924Z,4.90
2018-11-25T20:20:27.510Z,4.90
2018-11-25T20:22:55.062Z,5.00
2018-11-25T20:25:22.632Z,5.10
2018-11-25T20:27:50.183Z,5.20
2018-11-25T20:30:17.755Z,5.30
2018-11-25T20:32:45.302Z,5.20
2018-11-25T20:35:12.884Z,5.30
2018-11-25T20:37:41.225Z,5.30
2018-11-25T20:40:09.727Z,5.20
2018-11-25T20:42:38.088Z,5.30
2018-11-25T20:45:05.715Z,5.30
2018-11-25T20:47:33.263Z,5.30
2018-11-25T20:50:00.816Z,5.30
2018-11-25T20:55:25.518Z,5.30
2018-11-25T20:57:53.824Z,5.30
2018-11-25T21:00:21.405Z,5.30
2018-11-25T21:02:48.943Z,5.40
2018-11-25T21:05:16.533Z,5.30
2018-11-25T21:07:44.121Z,5.30
2018-11-25T21:10:12.668Z,5.30
2018-11-25T21:12:40.235Z,5.30
2018-11-25T21:15:09.739Z,5.30
2018-11-25T21:17:37.319Z,5.30
2018-11-25T21:20:04.868Z,5.30
2018-11-25T21:22:32.444Z,5.40
2018-11-25T21:25:00.771Z,5.40
2018-11-25T21:27:28.349Z,5.40
2018-11-25T21:29:55.896Z,5.50
2018-11-25T21:32:23.478Z,5.50
2018-11-25T21:34:51.017Z,5.50
2018-11-25T21:37:18.608Z,5.50
2018-11-25T21:39:46.148Z,5.50
2018-11-25T21:42:13.722Z,5.50
2018-11-25T21:44:42.242Z,5.50
2018-11-25T21:47:09.833Z,5.50
2018-11-25T21:49:37.370Z,5.50
2018-11-25T21:52:04.939Z,5.50
2018-11-25T21:54:32.479Z,5.50
2018-11-25T21:57:00.069Z,5.50
2018-11-25T21:59:27.621Z,5.50
2018-11-25T22:01:55.199Z,5.50
2018-11-25T22:04:22.739Z,5.50
2018-11-25T22:06:50.318Z,5.50
2018-11-25T22:09:18.641Z,5.50
2018-11-25T22:11:46.228Z,5.50
2018-11-25T22:14:14.736Z,5.60
2018-11-25T22:16:42.307Z,5.60
2018-11-25T22:19:10.094Z,5.60
2018-11-25T22:21:37.773Z,5.70
2018-11-25T22:24:05.319Z,5.70
2018-11-25T22:26:33.892Z,5.60
2018-11-25T22:29:01.440Z,5.80
2018-11-25T22:31:29.019Z,5.80
2018-11-25T22:33:56.577Z,5.90
2018-11-25T22:36:24.176Z,5.90
2018-11-25T22:38:51.711Z,5.90
2018-11-25T22:41:19.301Z,5.80
2018-11-25T22:43:47.621Z,5.90
2018-11-25T22:46:15.200Z,5.90
2018-11-25T22:48:42.752Z,5.90
2018-11-25T22:51:10.328Z,5.90
2018-11-25T22:53:37.868Z,5.80
2018-11-25T22:56:05.444Z,5.80
2018-11-25T22:58:33.945Z,5.70
2018-11-25T23:01:02.298Z,5.70
2018-11-25T23:03:29.867Z,5.70
2018-11-25T23:08:57.668Z,5.80
2018-11-25T23:11:25.249Z,5.80
2018-11-25T23:13:53.766Z,5.80
2018-11-25T23:16:21.355Z,5.80
2018-11-25T23:18:49.893Z,5.80
2018-11-25T23:21:17.472Z,5.80
2018-11-25T23:23:45.008Z,5.50
2018-11-25T23:26:12.590Z,5.30
2018-11-25T23:28:40.131Z,5.30
2018-11-25T23:31:07.712Z,5.10
2018-11-25T23:33:36.991Z,5.00
2018-11-25T23:36:04.580Z,5.00
2018-11-25T23:38:32.127Z,5.20
2018-11-25T23:40:59.669Z,5.20
2018-11-25T23:43:27.272Z,5.20
2018-11-25T23:45:56.793Z,5.10
2018-11-25T23:48:24.362Z,5.20
2018-11-25T23:50:51.901Z,5.20
2018-11-25T23:53:19.479Z,5.10
2018-11-25T23:55:47.048Z,5.20
2018-11-25T23:58:14.615Z,5.00
